Time;durP1;ratioP1;P1;durP2;ratioP2;P2;SDS_P1;SDS_P2;PMS_P1;PMS_P2;Temp;Humidity;BMP_temperature;BMP_pressure;BME280_temperature;BME280_humidity;BME280_pressure;Samples;Min_cycle;Max_cycle;Signal;HPM_P1;HPM_P2
2022/07/29 00:01:26;;;;;;;3.97;1.60;;;;;20.30;101146.00;;;;5025547;28;20233;-71
2022/07/29 00:04:13;;;;;;;2.87;1.50;;;;;20.10;101137.00;;;;5025357;28;20233;-71
2022/07/29 00:06:59;;;;;;;3.37;1.50;;;;;20.10;101141.00;;;;5030224;28;20257;-70
2022/07/29 00:09:47;;;;;;;3.17;1.87;;;;;20.00;101134.00;;;;5026246;28;20233;-71
2022/07/29 00:12:37;;;;;;;2.97;1.87;;;;;20.00;101132.00;;;;5025983;28;20624;-71
2022/07/29 00:15:24;;;;;;;2.73;1.50;;;;;19.90;101124.00;;;;5026334;28;20225;-71
2022/07/29 00:18:10;;;;;;;5.27;1.40;;;;;20.00;101123.00;;;;5029018;28;20381;-72
2022/07/29 00:20:57;;;;;;;1.73;1.40;;;;;19.90;101116.00;;;;5025493;28;20249;-71
2022/07/29 00:23:43;;;;;;;2.97;1.70;;;;;19.80;101107.00;;;;5026542;28;20229;-70
2022/07/29 00:26:31;;;;;;;4.93;1.53;;;;;19.90;101110.00;;;;5026912;28;20253;-71
2022/07/29 00:29:17;;;;;;;2.00;1.60;;;;;19.90;101107.00;;;;5023857;28;20300;-69
2022/07/29 00:32:19;;;;;;;5.30;1.63;;;;;19.90;101100.00;;;;5026824;28;20777;-71
2022/07/29 00:38:11;;;;;;;1.97;1.40;;;;;19.90;101092.00;;;;5026641;28;20256;-70
2022/07/29 00:40:58;;;;;;;2.03;1.63;;;;;19.90;101099.00;;;;5024215;28;20244;-67
2022/07/29 00:43:46;;;;;;;4.50;1.63;;;;;19.90;101090.00;;;;5020075;28;20225;-70
2022/07/29 00:46:32;;;;;;;3.70;1.63;;;;;19.70;101080.00;;;;5026351;28;20233;-70
2022/07/29 00:49:18;;;;;;;2.87;1.60;;;;;19.50;101092.00;;;;5026366;28;20237;-70
2022/07/29 00:52:06;;;;;;;2.40;1.50;;;;;19.60;101080.00;;;;5024716;28;21031;-71
2022/07/29 00:54:53;;;;;;;3.10;1.50;;;;;19.60;101071.00;;;;5020644;28;20263;-67
2022/07/29 00:57:40;;;;;;;4.43;1.60;;;;;19.60;101074.00;;;;5026932;28;20260;-71
2022/07/29 01:00:29;;;;;;;6.70;1.70;;;;;19.60;101071.00;;;;5024445;28;20230;-71
2022/07/29 01:03:15;;;;;;;3.87;1.50;;;;;19.40;101074.00;;;;5025104;28;20233;-70
2022/07/29 01:06:02;;;;;;;6.23;1.90;;;;;19.60;101070.00;;;;5026860;28;20615;-70
2022/07/29 01:08:49;;;;;;;3.53;1.57;;;;;19.40;101065.00;;;;5021026;28;20310;-69
2022/07/29 01:11:36;;;;;;;3.53;1.50;;;;;19.50;101061.00;;;;5025227;28;20610;-71
2022/07/29 01:14:23;;;;;;;2.07;1.57;;;;;19.30;101059.00;;;;5015235;28;20238;-71
2022/07/29 01:17:16;;;;;;;4.30;1.63;;;;;19.40;101049.00;;;;5007531;28;20249;-69
2022/07/29 01:20:11;;;;;;;4.63;1.70;;;;;19.30;101048.00;;;;5024508;28;20240;-69
2022/07/29 01:23:38;;;;;;;3.47;1.60;;;;;19.50;101044.00;;;;5019787;28;20249;-70
2022/07/29 01:26:35;;;;;;;9.93;1.87;;;;;19.30;101045.00;;;;5022109;28;20228;-71
2022/07/29 01:29:29;;;;;;;2.93;1.50;;;;;19.20;101030.00;;;;5025862;28;20774;-69
2022/07/29 01:32:27;;;;;;;4.53;1.60;;;;;19.20;101040.00;;;;5017047;28;20308;-70
2022/07/29 01:35:19;;;;;;;4.57;1.70;;;;;19.20;101035.00;;;;5020950;28;20236;-70
2022/07/29 01:38:10;;;;;;;6.00;1.77;;;;;19.10;101036.00;;;;5024671;28;20241;-70
2022/07/29 01:41:03;;;;;;;3.90;1.80;;;;;19.00;101033.00;;;;5017908;28;20292;-70
2022/07/29 01:43:52;;;;;;;2.63;1.60;;;;;19.00;101034.00;;;;5019470;28;20329;-70
2022/07/29 01:46:45;;;;;;;4.17;1.60;;;;;19.00;101030.00;;;;5018754;28;20643;-69
2022/07/29 01:49:36;;;;;;;3.17;1.80;;;;;19.00;101019.00;;;;5017911;28;20594;-70
2022/07/29 01:52:28;;;;;;;2.90;1.90;;;;;18.80;101031.00;;;;5024495;28;20597;-67
2022/07/29 01:55:17;;;;;;;2.60;1.50;;;;;18.70;101020.00;;;;5026257;28;20237;-70
2022/07/29 01:58:06;;;;;;;3.27;1.80;;;;;18.80;101019.00;;;;5021187;28;20353;-69
2022/07/29 02:00:54;;;;;;;6.63;1.80;;;;;18.90;101011.00;;;;5025234;28;20241;-69
2022/07/29 02:03:44;;;;;;;4.53;1.90;;;;;18.90;101008.00;;;;5021529;28;20229;-66
2022/07/29 02:06:33;;;;;;;5.87;1.47;;;;;19.00;100999.00;;;;5031502;28;20237;-71
2022/07/29 02:09:21;;;;;;;4.33;1.83;;;;;18.80;101005.00;;;;5029324;28;20276;-71
2022/07/29 02:12:10;;;;;;;3.03;1.57;;;;;18.80;101000.00;;;;5023747;28;20718;-71
2022/07/29 02:15:00;;;;;;;4.43;1.90;;;;;18.80;100995.00;;;;5020538;28;20229;-72
2022/07/29 02:17:52;;;;;;;3.53;1.80;;;;;19.00;100992.00;;;;5025434;28;20238;-69
2022/07/29 02:20:43;;;;;;;2.83;1.70;;;;;18.90;100995.00;;;;5027480;28;20236;-67
2022/07/29 02:23:31;;;;;;;3.80;1.90;;;;;18.90;100997.00;;;;5028910;28;20237;-69
2022/07/29 02:26:36;;;;;;;2.43;1.73;;;;;18.70;100993.00;;;;5027943;28;20221;-69
2022/07/29 02:29:26;;;;;;;2.93;1.97;;;;;18.80;100996.00;;;;5026657;28;20272;-68
2022/07/29 02:32:14;;;;;;;7.47;1.60;;;;;18.70;101004.00;;;;5026639;28;20226;-69
2022/07/29 02:35:02;;;;;;;2.70;1.80;;;;;18.90;101000.00;;;;5012634;28;20233;-71
2022/07/29 02:38:49;;;;;;;4.40;1.87;;;;;18.80;100996.00;;;;5027972;28;20296;-71
2022/07/29 02:40:59;;;;;;;1.97;1.77;;;;;18.70;100999.00;;;;5023753;28;20249;-72
2022/07/29 02:43:48;;;;;;;3.07;1.80;;;;;18.70;101005.00;;;;5028185;28;20225;-68
2022/07/29 02:46:36;;;;;;;3.53;1.90;;;;;18.90;100995.00;;;;5030314;28;20304;-70
2022/07/29 02:49:35;;;;;;;4.20;1.80;;;;;18.80;101003.00;;;;5026784;28;20249;-67
2022/07/29 02:52:26;;;;;;;2.70;1.60;;;;;18.70;101001.00;;;;5027219;28;20738;-68
2022/07/29 02:55:19;;;;;;;5.97;1.83;;;;;18.60;101002.00;;;;5026323;28;20237;-70
2022/07/29 02:58:12;;;;;;;3.57;1.90;;;;;18.60;100990.00;;;;5023377;28;20284;-70
2022/07/29 03:01:00;;;;;;;5.77;1.73;;;;;18.50;100993.00;;;;5017247;28;20319;-71
2022/07/29 03:03:49;;;;;;;2.83;1.60;;;;;18.40;101008.00;;;;5031227;28;20233;-70
2022/07/29 03:06:37;;;;;;;1.77;1.60;;;;;18.40;101000.00;;;;5026473;28;20225;-71
2022/07/29 03:09:26;;;;;;;2.97;1.77;;;;;18.40;101012.00;;;;5026584;28;20305;-70
2022/07/29 03:12:14;;;;;;;3.27;1.80;;;;;18.40;101002.00;;;;5027380;28;20238;-70
2022/07/29 03:15:02;;;;;;;2.83;1.60;;;;;18.40;100998.00;;;;5025905;28;20284;-70
2022/07/29 03:17:50;;;;;;;5.60;1.57;;;;;18.50;100986.00;;;;5027754;28;20690;-71
2022/07/29 03:20:38;;;;;;;11.00;2.10;;;;;18.60;100988.00;;;;5024172;28;20756;-71
2022/07/29 03:23:27;;;;;;;4.63;2.03;;;;;18.50;100983.00;;;;5024556;28;20715;-71
2022/07/29 03:26:20;;;;;;;3.73;2.00;;;;;18.50;100991.00;;;;5026452;28;20244;-70
2022/07/29 03:29:08;;;;;;;3.90;1.60;;;;;18.50;100989.00;;;;5026841;28;20295;-70
2022/07/29 03:31:58;;;;;;;7.73;1.70;;;;;18.60;100987.00;;;;5025024;28;20304;-66
2022/07/29 03:34:45;;;;;;;3.20;2.00;;;;;18.50;100989.00;;;;5025163;28;20253;-70
2022/07/29 03:37:31;;;;;;;2.57;1.70;;;;;18.60;100992.00;;;;5028157;28;20323;-71
2022/07/29 03:40:22;;;;;;;4.50;1.90;;;;;18.50;100988.00;;;;5024090;28;20244;-71
2022/07/29 03:43:10;;;;;;;4.57;1.60;;;;;18.70;100987.00;;;;5026953;28;20719;-68
2022/07/29 03:46:00;;;;;;;3.97;2.00;;;;;18.70;100994.00;;;;5022081;28;20328;-71
2022/07/29 03:48:51;;;;;;;3.27;1.90;;;;;18.70;100999.00;;;;5026820;28;20300;-70
2022/07/29 03:51:38;;;;;;;2.93;1.90;;;;;18.60;101029.00;;;;5028001;28;20283;-70
2022/07/29 03:54:24;;;;;;;6.97;1.90;;;;;18.50;101033.00;;;;5027264;28;20408;-69
2022/07/29 03:57:12;;;;;;;2.73;1.80;;;;;18.40;101035.00;;;;5026218;28;20241;-70
2022/07/29 03:59:59;;;;;;;7.63;2.00;;;;;18.30;101031.00;;;;5021359;28;20280;-71
2022/07/29 04:02:48;;;;;;;3.73;2.20;;;;;18.30;101022.00;;;;5020882;28;20292;-69
2022/07/29 04:05:35;;;;;;;3.53;2.00;;;;;18.30;101040.00;;;;5029930;28;20340;-71
2022/07/29 04:08:21;;;;;;;3.80;1.70;;;;;18.20;101045.00;;;;5025798;28;20296;-71
2022/07/29 04:11:07;;;;;;;4.47;1.73;;;;;18.20;101049.00;;;;5025817;28;20253;-71
2022/07/29 04:13:54;;;;;;;5.40;1.90;;;;;18.30;101030.00;;;;5033991;28;20256;-71
2022/07/29 04:16:40;;;;;;;3.30;1.80;;;;;18.30;101027.00;;;;5019820;28;20252;-70
2022/07/29 04:19:28;;;;;;;5.13;1.80;;;;;18.20;101032.00;;;;5023899;28;20249;-70
2022/07/29 04:22:15;;;;;;;2.07;1.73;;;;;18.10;101045.00;;;;5027029;28;20229;-69
2022/07/29 04:25:01;;;;;;;3.93;1.77;;;;;18.00;101047.00;;;;5022093;28;20233;-70
2022/07/29 04:28:02;;;;;;;3.30;1.80;;;;;18.10;101030.00;;;;5021922;28;20323;-70
2022/07/29 04:30:49;;;;;;;3.07;1.87;;;;;18.10;101031.00;;;;5026709;28;20241;-71
2022/07/29 04:33:35;;;;;;;3.23;1.80;;;;;18.10;101037.00;;;;5026558;28;21019;-69
2022/07/29 04:36:23;;;;;;;3.13;2.00;;;;;18.10;101052.00;;;;5023579;28;20229;-70
2022/07/29 04:39:17;;;;;;;2.93;1.97;;;;;18.10;101053.00;;;;5026443;28;20754;-70
2022/07/29 04:42:08;;;;;;;2.47;1.80;;;;;18.00;101050.00;;;;5023669;28;20228;-68
2022/07/29 04:44:54;;;;;;;4.57;2.00;;;;;18.00;101053.00;;;;5025596;28;20241;-70
2022/07/29 04:47:41;;;;;;;3.60;1.90;;;;;17.90;101071.00;;;;5020642;28;20225;-71
2022/07/29 04:50:28;;;;;;;2.80;1.80;;;;;18.00;101069.00;;;;5024068;28;20221;-69
2022/07/29 04:53:15;;;;;;;2.77;2.20;;;;;18.00;101062.00;;;;5020886;28;20249;-69
2022/07/29 04:56:02;;;;;;;3.87;2.00;;;;;18.00;101101.00;;;;5021578;28;20241;-69
2022/07/29 04:58:49;;;;;;;2.70;2.00;;;;;18.00;101092.00;;;;5026965;28;20236;-70
2022/07/29 05:01:35;;;;;;;4.20;2.30;;;;;17.90;101110.00;;;;5025767;28;20225;-70
2022/07/29 05:04:21;;;;;;;4.43;1.90;;;;;17.90;101109.00;;;;5018630;28;20611;-70
2022/07/29 05:07:08;;;;;;;3.63;1.87;;;;;17.90;101115.00;;;;5026407;28;20233;-67
2022/07/29 05:09:56;;;;;;;16.73;2.40;;;;;17.80;101104.00;;;;5020179;28;20280;-70
2022/07/29 05:12:43;;;;;;;2.93;2.33;;;;;17.70;101099.00;;;;5012917;28;20226;-69
2022/07/29 05:15:29;;;;;;;3.37;2.17;;;;;17.50;101087.00;;;;5031156;28;20229;-69
2022/07/29 05:18:15;;;;;;;3.17;2.57;;;;;17.40;101077.00;;;;5026979;28;20605;-69
2022/07/29 05:21:02;;;;;;;4.87;2.60;;;;;17.20;101079.00;;;;5021688;28;20276;-70
2022/07/29 05:23:49;;;;;;;5.70;2.53;;;;;17.20;101075.00;;;;5021976;28;20818;-70
2022/07/29 05:26:36;;;;;;;5.10;2.80;;;;;17.10;101076.00;;;;5026364;28;20233;-69
2022/07/29 05:29:23;;;;;;;4.60;3.17;;;;;17.10;101067.00;;;;5022873;28;20225;-71
2022/07/29 05:32:29;;;;;;;4.77;2.90;;;;;17.20;101067.00;;;;5024739;28;20730;-70
2022/07/29 05:35:16;;;;;;;4.77;2.63;;;;;17.10;101064.00;;;;5021999;28;20385;-70
2022/07/29 05:38:02;;;;;;;7.17;2.90;;;;;17.10;101065.00;;;;5020927;28;20432;-70
2022/07/29 05:40:48;;;;;;;5.23;2.60;;;;;17.00;101073.00;;;;5025406;28;20245;-71
2022/07/29 05:43:36;;;;;;;3.30;2.47;;;;;17.20;101079.00;;;;5023437;28;20228;-70
2022/07/29 05:46:22;;;;;;;75.03;41.73;;;;;16.90;101079.00;;;;5016960;28;20237;-70
2022/07/29 05:49:08;;;;;;;6.27;4.57;;;;;17.00;101064.00;;;;5022448;28;20257;-68
2022/07/29 05:51:55;;;;;;;6.43;3.63;;;;;17.20;101069.00;;;;5022909;28;20688;-68
2022/07/29 05:54:41;;;;;;;6.53;2.87;;;;;17.30;101076.00;;;;5026932;28;20307;-69
2022/07/29 05:57:28;;;;;;;3.50;2.83;;;;;17.20;101085.00;;;;5022782;28;20237;-69
2022/07/29 06:00:16;;;;;;;4.37;2.63;;;;;17.20;101075.00;;;;5032710;28;20244;-69
2022/07/29 06:03:03;;;;;;;4.13;2.70;;;;;17.40;101076.00;;;;5029032;28;20260;-69
2022/07/29 06:05:49;;;;;;;5.10;2.70;;;;;17.40;101068.00;;;;5022188;28;20613;-68
2022/07/29 06:08:36;;;;;;;4.00;2.87;;;;;17.40;101068.00;;;;5029164;28;20271;-68
2022/07/29 06:11:22;;;;;;;7.57;2.77;;;;;17.40;101069.00;;;;5028027;28;20895;-68
2022/07/29 06:14:08;;;;;;;4.43;2.60;;;;;17.50;101068.00;;;;5035369;28;20248;-69
2022/07/29 06:16:56;;;;;;;6.60;3.07;;;;;17.40;101051.00;;;;5021848;28;20232;-69
2022/07/29 06:19:42;;;;;;;4.73;2.90;;;;;17.50;101051.00;;;;5015992;28;20815;-69
2022/07/29 06:22:28;;;;;;;4.83;2.90;;;;;17.40;101053.00;;;;5028055;28;20237;-69
2022/07/29 06:25:15;;;;;;;4.20;2.97;;;;;17.40;101049.00;;;;5021775;28;20273;-69
2022/07/29 06:28:02;;;;;;;3.00;2.70;;;;;17.40;101050.00;;;;5022323;28;20233;-69
2022/07/29 06:30:48;;;;;;;3.43;2.53;;;;;17.50;101044.00;;;;5003190;28;20373;-70
2022/07/29 06:33:36;;;;;;;6.23;3.80;;;;;17.30;101035.00;;;;5025794;28;20359;-69
2022/07/29 06:36:22;;;;;;;6.67;2.80;;;;;17.40;101029.00;;;;5019640;28;20604;-67
2022/07/29 06:39:10;;;;;;;4.90;2.70;;;;;17.40;101028.00;;;;5026799;28;20248;-70
2022/07/29 06:41:57;;;;;;;3.77;2.57;;;;;17.40;101039.00;;;;5021083;28;20242;-71
2022/07/29 06:44:43;;;;;;;6.63;2.90;;;;;17.40;101027.00;;;;5026589;28;20238;-70
2022/07/29 06:47:30;;;;;;;3.20;2.63;;;;;17.50;101027.00;;;;5021000;28;20240;-69
2022/07/29 06:50:17;;;;;;;3.47;2.60;;;;;17.60;101032.00;;;;5033863;28;20710;-70
2022/07/29 06:53:04;;;;;;;5.77;3.13;;;;;17.60;101034.00;;;;5029307;28;20248;-69
2022/07/29 06:55:50;;;;;;;5.67;2.90;;;;;17.50;101033.00;;;;5027831;28;20328;-69
2022/07/29 06:58:37;;;;;;;5.90;3.10;;;;;17.50;101029.00;;;;5025368;28;20229;-68
2022/07/29 07:01:23;;;;;;;4.63;3.13;;;;;17.50;101035.00;;;;5027471;28;20241;-67
2022/07/29 07:04:11;;;;;;;5.50;2.70;;;;;17.60;101060.00;;;;5025013;28;20296;-68
2022/07/29 07:06:59;;;;;;;7.10;3.13;;;;;17.60;101054.00;;;;5027410;28;20261;-69
2022/07/29 07:09:45;;;;;;;5.30;3.10;;;;;17.70;101053.00;;;;5016076;28;20392;-68
2022/07/29 07:12:31;;;;;;;9.80;4.60;;;;;17.70;101050.00;;;;5028754;28;20296;-69
2022/07/29 07:15:21;;;;;;;5.03;3.13;;;;;17.80;101047.00;;;;5029504;28;20245;-67
2022/07/29 07:18:23;;;;;;;5.53;3.10;;;;;17.70;101046.00;;;;5026007;28;20236;-68
2022/07/29 07:21:09;;;;;;;5.03;3.03;;;;;17.70;101046.00;;;;5027515;28;20257;-69
2022/07/29 07:23:57;;;;;;;3.87;3.13;;;;;17.70;101045.00;;;;5024269;28;20226;-68
2022/07/29 07:26:44;;;;;;;5.07;3.20;;;;;17.80;101049.00;;;;5028770;28;20284;-68
2022/07/29 07:29:30;;;;;;;3.50;3.10;;;;;17.90;101043.00;;;;5027034;28;20722;-69
2022/07/29 07:32:17;;;;;;;6.33;2.90;;;;;17.80;101046.00;;;;5032212;28;20225;-68
2022/07/29 07:35:05;;;;;;;6.40;3.40;;;;;17.90;101042.00;;;;5023034;28;20238;-69
2022/07/29 07:37:51;;;;;;;4.43;3.40;;;;;17.90;101050.00;;;;5032458;28;20716;-70
2022/07/29 07:40:39;;;;;;;4.17;3.03;;;;;18.00;101057.00;;;;5030273;28;20241;-71
2022/07/29 07:43:25;;;;;;;4.30;3.13;;;;;18.20;101046.00;;;;5025577;28;20280;-68
2022/07/29 07:46:12;;;;;;;5.03;3.30;;;;;18.10;101056.00;;;;5031987;28;21441;-70
2022/07/29 07:48:58;;;;;;;7.53;3.20;;;;;18.20;101059.00;;;;5021428;28;20311;-70
2022/07/29 07:51:45;;;;;;;4.87;3.00;;;;;18.20;101059.00;;;;5027519;28;20269;-70
2022/07/29 07:54:36;;;;;;;3.90;2.87;;;;;18.30;101068.00;;;;5025507;28;20253;-68
2022/07/29 07:57:23;;;;;;;6.63;3.07;;;;;18.40;101079.00;;;;5025027;28;20361;-69
2022/07/29 08:00:11;;;;;;;8.73;3.13;;;;;18.40;101088.00;;;;5024241;28;20228;-70
2022/07/29 08:02:57;;;;;;;8.30;4.90;;;;;18.60;101088.00;;;;5026563;28;20320;-70
2022/07/29 08:05:44;;;;;;;4.33;3.00;;;;;18.70;101100.00;;;;5017785;28;20663;-70
2022/07/29 08:08:30;;;;;;;3.40;2.70;;;;;18.70;101096.00;;;;5021437;28;20233;-70
2022/07/29 08:11:16;;;;;;;6.53;2.97;;;;;18.80;101113.00;;;;5027184;28;20336;-70
2022/07/29 08:14:04;;;;;;;5.80;2.87;;;;;18.80;101123.00;;;;5032015;28;20295;-70
2022/07/29 08:16:50;;;;;;;3.97;2.50;;;;;18.90;101123.00;;;;5027073;28;20233;-68
2022/07/29 08:19:38;;;;;;;4.10;2.87;;;;;18.80;101133.00;;;;5021470;28;20303;-70
2022/07/29 08:22:24;;;;;;;4.13;2.60;;;;;19.00;101138.00;;;;5022817;28;20233;-69
2022/07/29 08:25:11;;;;;;;6.60;2.73;;;;;18.80;101132.00;;;;5023213;28;20237;-67
2022/07/29 08:28:02;;;;;;;4.97;2.67;;;;;18.80;101130.00;;;;5022838;28;20733;-71
2022/07/29 08:30:49;;;;;;;5.77;2.60;;;;;18.70;101118.00;;;;5017273;28;20828;-70
2022/07/29 08:33:36;;;;;;;3.17;2.40;;;;;18.70;101124.00;;;;5026159;28;20252;-70
2022/07/29 08:36:23;;;;;;;5.40;2.63;;;;;18.70;101124.00;;;;5019317;28;20241;-68
2022/07/29 08:39:09;;;;;;;5.00;2.70;;;;;18.70;101120.00;;;;5022531;28;20725;-66
2022/07/29 08:41:56;;;;;;;5.53;3.20;;;;;18.80;101122.00;;;;5012417;28;20237;-71
2022/07/29 08:44:43;;;;;;;5.40;3.13;;;;;18.80;101119.00;;;;5019628;28;20241;-71
2022/07/29 08:47:31;;;;;;;4.83;3.40;;;;;18.90;101124.00;;;;5025076;28;20249;-68
2022/07/29 08:50:17;;;;;;;4.63;2.80;;;;;19.00;101140.00;;;;5023154;28;20232;-71
2022/07/29 08:53:04;;;;;;;4.93;3.30;;;;;19.20;101142.00;;;;5025699;28;20237;-71
2022/07/29 08:55:51;;;;;;;7.83;3.13;;;;;19.10;101140.00;;;;5020613;28;20237;-70
2022/07/29 08:58:37;;;;;;;4.17;3.20;;;;;19.10;101150.00;;;;5019182;28;20232;-70
2022/07/29 09:01:27;;;;;;;6.73;3.67;;;;;19.10;101147.00;;;;5019670;28;20234;-69
2022/07/29 09:04:25;;;;;;;4.13;2.87;;;;;19.20;101150.00;;;;5027683;28;20237;-71
2022/07/29 09:07:15;;;;;;;4.73;3.03;;;;;19.10;101133.00;;;;5024983;28;20229;-70
2022/07/29 09:10:04;;;;;;;5.47;3.17;;;;;19.00;101136.00;;;;5016727;28;20611;-71
2022/07/29 09:12:52;;;;;;;4.87;3.40;;;;;19.00;101132.00;;;;5026522;28;20672;-68
2022/07/29 09:15:38;;;;;;;4.47;3.13;;;;;18.90;101133.00;;;;5022879;28;20284;-70
2022/07/29 09:18:38;;;;;;;7.60;3.60;;;;;18.80;101135.00;;;;5013246;28;20229;-70
2022/07/29 09:24:41;;;;;;;6.70;3.00;;;;;18.90;101119.00;;;;5015250;28;20229;-70
2022/07/29 09:27:28;;;;;;;3.03;2.83;;;;;18.80;101118.00;;;;5024729;28;20233;-69
2022/07/29 09:30:15;;;;;;;5.43;3.53;;;;;18.70;101117.00;;;;5026818;28;20701;-68
2022/07/29 09:33:15;;;;;;;8.30;3.37;;;;;18.50;101125.00;;;;5029160;28;20721;-70
2022/07/29 09:36:04;;;;;;;5.50;3.37;;;;;18.30;101121.00;;;;5024771;28;20304;-70
2022/07/29 09:38:59;;;;;;;8.73;3.47;;;;;18.30;101121.00;;;;5031339;28;20264;-71
2022/07/29 09:41:48;;;;;;;7.13;3.77;;;;;18.40;101125.00;;;;5027528;28;20603;-70
2022/07/29 09:44:46;;;;;;;5.50;3.43;;;;;18.40;101132.00;;;;5029681;28;20307;-70
2022/07/29 09:47:44;;;;;;;3.77;3.40;;;;;18.30;101130.00;;;;5028947;28;20236;-70
2022/07/29 09:50:38;;;;;;;10.97;3.57;;;;;18.30;101132.00;;;;5029334;28;20722;-69
2022/07/29 09:53:32;;;;;;;8.60;3.70;;;;;18.40;101129.00;;;;5029741;28;20241;-71
2022/07/29 09:56:19;;;;;;;7.80;3.90;;;;;18.50;101120.00;;;;5030281;28;20880;-71
2022/07/29 09:59:07;;;;;;;5.77;3.77;;;;;18.60;101118.00;;;;5025649;28;20311;-71
2022/07/29 10:01:53;;;;;;;3.97;3.57;;;;;18.60;101109.00;;;;5026173;28;20236;-70
2022/07/29 10:04:42;;;;;;;9.70;4.03;;;;;18.70;101113.00;;;;5027813;28;20735;-69
2022/07/29 10:07:44;;;;;;;5.63;3.93;;;;;18.70;101104.00;;;;5027975;28;20312;-67
2022/07/29 10:10:37;;;;;;;5.23;4.07;;;;;18.60;101095.00;;;;5027307;28;20237;-68
2022/07/29 10:13:26;;;;;;;15.87;9.73;;;;;18.50;101105.00;;;;5028037;28;20301;-69
2022/07/29 10:16:15;;;;;;;7.30;4.20;;;;;18.60;101099.00;;;;5029428;28;20235;-70
2022/07/29 10:19:01;;;;;;;9.47;4.40;;;;;18.50;101101.00;;;;5026925;28;20229;-68
2022/07/29 10:21:49;;;;;;;9.33;4.33;;;;;18.60;101099.00;;;;5028990;28;20714;-69
2022/07/29 10:24:41;;;;;;;8.30;4.23;;;;;18.70;101103.00;;;;5025264;28;20249;-66
2022/07/29 10:27:28;;;;;;;6.67;4.03;;;;;18.90;101096.00;;;;5028513;28;20628;-66
2022/07/29 10:30:21;;;;;;;8.17;4.30;;;;;19.00;101084.00;;;;5025616;28;20229;-66
2022/07/29 10:33:36;;;;;;;7.87;4.10;;;;;19.10;101069.00;;;;5027536;28;20229;-66
2022/07/29 10:36:36;;;;;;;8.57;4.10;;;;;18.90;101078.00;;;;5025426;28;20241;-69
2022/07/29 10:39:40;;;;;;;6.90;4.50;;;;;18.90;101068.00;;;;5038279;28;20610;-70
2022/07/29 10:42:31;;;;;;;6.27;4.07;;;;;18.80;101067.00;;;;5025129;28;20745;-69
2022/07/29 10:45:22;;;;;;;5.30;3.90;;;;;18.90;101079.00;;;;5025860;28;20803;-71
2022/07/29 10:48:09;;;;;;;6.57;4.43;;;;;18.90;101067.00;;;;5028547;28;20276;-70
2022/07/29 10:50:59;;;;;;;7.67;4.30;;;;;18.90;101074.00;;;;5031065;28;20236;-69
2022/07/29 10:53:50;;;;;;;6.33;4.23;;;;;19.00;101068.00;;;;5025192;28;21502;-71
2022/07/29 10:56:40;;;;;;;8.50;4.00;;;;;19.10;101067.00;;;;5020432;28;20229;-70
2022/07/29 10:59:31;;;;;;;5.60;3.80;;;;;19.10;101066.00;;;;5019765;28;20319;-70
2022/07/29 11:02:45;;;;;;;4.97;4.00;;;;;19.10;101065.00;;;;5027639;28;20233;-70
2022/07/29 11:05:53;;;;;;;6.13;3.83;;;;;19.20;101048.00;;;;5026275;28;20624;-69
2022/07/29 11:08:40;;;;;;;6.60;4.30;;;;;19.30;101053.00;;;;5027359;28;20228;-69
2022/07/29 11:11:34;;;;;;;7.17;4.07;;;;;19.50;101064.00;;;;5025787;28;20733;-69
2022/07/29 11:14:55;;;;;;;6.43;3.90;;;;;19.60;101070.00;;;;5028065;28;20280;-69
2022/07/29 11:18:08;;;;;;;7.60;4.20;;;;;19.70;101079.00;;;;5027783;28;20730;-71
2022/07/29 11:21:02;;;;;;;6.50;3.93;;;;;19.50;101084.00;;;;5027934;28;20599;-69
2022/07/29 11:23:48;;;;;;;8.20;4.00;;;;;19.50;101084.00;;;;5035878;28;20767;-70
2022/07/29 11:26:35;;;;;;;5.13;3.40;;;;;19.40;101093.00;;;;5035932;28;20228;-68
2022/07/29 11:29:25;;;;;;;5.83;3.30;;;;;19.30;101099.00;;;;5023003;28;20722;-71
2022/07/29 11:32:15;;;;;;;8.10;3.73;;;;;19.30;101093.00;;;;5027312;28;20229;-68
2022/07/29 11:35:17;;;;;;;4.73;3.73;;;;;19.20;101089.00;;;;5026826;28;20364;-67
2022/07/29 11:38:26;;;;;;;6.93;3.97;;;;;19.30;101093.00;;;;5023329;28;20233;-70
2022/07/29 11:41:25;;;;;;;6.47;3.73;;;;;19.30;101101.00;;;;5021872;28;20220;-70
2022/07/29 11:44:12;;;;;;;7.87;4.53;;;;;19.40;101102.00;;;;5026264;28;20230;-67
2022/07/29 11:47:03;;;;;;;8.93;4.47;;;;;19.50;101094.00;;;;5025656;28;20225;-68
2022/07/29 11:49:52;;;;;;;7.40;4.13;;;;;19.50;101102.00;;;;5027236;28;20237;-69
2022/07/29 11:52:47;;;;;;;6.57;4.37;;;;;19.50;101101.00;;;;5026156;28;20229;-68
2022/07/29 11:55:38;;;;;;;9.20;4.67;;;;;19.70;101094.00;;;;5023823;28;20488;-68
2022/07/29 11:58:37;;;;;;;7.30;4.60;;;;;19.80;101100.00;;;;5019314;28;20423;-69
2022/07/29 12:01:24;;;;;;;6.90;4.23;;;;;20.00;101095.00;;;;5027057;28;20233;-70
2022/07/29 12:04:13;;;;;;;9.63;4.43;;;;;20.30;101090.00;;;;5026439;28;20240;-68
2022/07/29 12:06:59;;;;;;;6.00;3.80;;;;;20.80;101093.00;;;;5014840;28;20268;-66
2022/07/29 12:09:53;;;;;;;9.27;4.03;;;;;21.40;101087.00;;;;5027520;28;20602;-69
2022/07/29 12:12:42;;;;;;;7.40;4.10;;;;;21.80;101089.00;;;;5026680;28;20241;-69
2022/07/29 12:15:28;;;;;;;6.50;3.37;;;;;22.60;101088.00;;;;5025734;28;20361;-70
2022/07/29 12:18:32;;;;;;;4.73;3.27;;;;;23.20;101085.00;;;;5026766;28;20233;-69
2022/07/29 12:21:19;;;;;;;7.33;3.13;;;;;23.70;101085.00;;;;5022487;28;20233;-69
2022/07/29 12:24:10;;;;;;;6.23;3.33;;;;;23.80;101080.00;;;;5026904;28;20252;-69
2022/07/29 12:27:00;;;;;;;7.23;3.10;;;;;24.10;101078.00;;;;5021052;28;20310;-69
2022/07/29 12:29:57;;;;;;;6.10;3.20;;;;;24.20;101074.00;;;;5020421;28;20701;-68
2022/07/29 12:32:46;;;;;;;4.50;3.47;;;;;24.20;101073.00;;;;5026458;28;20289;-69
2022/07/29 12:35:32;;;;;;;3.80;2.63;;;;;24.60;101074.00;;;;5024799;28;20241;-68
2022/07/29 12:38:19;;;;;;;4.53;3.00;;;;;24.60;101070.00;;;;5026200;28;20230;-69
2022/07/29 12:41:05;;;;;;;3.77;2.90;;;;;24.70;101068.00;;;;5026701;28;20396;-69
2022/07/29 12:43:56;;;;;;;4.80;2.80;;;;;25.00;101072.00;;;;5018753;28;20241;-70
2022/07/29 12:46:42;;;;;;;7.30;3.03;;;;;25.00;101083.00;;;;5023058;28;20593;-69
2022/07/29 12:49:29;;;;;;;3.30;2.60;;;;;25.00;101087.00;;;;5026867;28;20229;-70
2022/07/29 12:52:31;;;;;;;7.33;2.60;;;;;24.80;101089.00;;;;5022194;28;20230;-70
2022/07/29 12:55:39;;;;;;;5.63;2.63;;;;;24.60;101084.00;;;;5016381;28;20233;-69
2022/07/29 12:58:35;;;;;;;4.57;2.80;;;;;24.90;101076.00;;;;5011390;28;20310;-70
2022/07/29 13:01:22;;;;;;;8.40;2.73;;;;;24.70;101084.00;;;;5025381;28;20332;-68
2022/07/29 13:04:09;;;;;;;5.57;3.00;;;;;24.70;101081.00;;;;5023955;28;20749;-69
2022/07/29 13:07:02;;;;;;;4.30;2.67;;;;;25.20;101079.00;;;;5020701;28;20232;-70
2022/07/29 13:09:49;;;;;;;4.43;2.57;;;;;25.40;101094.00;;;;5015206;28;20756;-72
2022/07/29 13:12:36;;;;;;;4.97;2.60;;;;;25.80;101090.00;;;;5012352;28;20319;-68
2022/07/29 13:15:24;;;;;;;4.53;2.80;;;;;25.50;101092.00;;;;5013049;28;20262;-68
2022/07/29 13:18:30;;;;;;;3.77;2.70;;;;;25.10;101096.00;;;;5001877;28;20655;-66
2022/07/29 13:21:17;;;;;;;14.17;3.17;;;;;24.70;101094.00;;;;5018575;28;20233;-69
2022/07/29 13:24:05;;;;;;;6.23;2.90;;;;;24.30;101107.00;;;;5024860;28;20253;-69
2022/07/29 13:26:52;;;;;;;6.20;3.17;;;;;23.90;101110.00;;;;5021987;28;20241;-68
2022/07/29 13:29:39;;;;;;;4.43;2.93;;;;;23.70;101114.00;;;;5020123;28;20790;-67
2022/07/29 13:32:27;;;;;;;35.87;3.57;;;;;23.60;101104.00;;;;5028113;28;20229;-69
2022/07/29 13:35:16;;;;;;;24.83;3.13;;;;;23.50;101106.00;;;;5022752;28;20246;-68
2022/07/29 13:38:02;;;;;;;9.30;2.90;;;;;23.40;101105.00;;;;5021778;28;20233;-67
2022/07/29 13:40:49;;;;;;;137.17;7.30;;;;;23.50;101107.00;;;;5019116;28;20283;-69
2022/07/29 13:43:35;;;;;;;4.03;2.57;;;;;23.40;101101.00;;;;5024751;28;20728;-70
2022/07/29 13:46:21;;;;;;;3.90;2.53;;;;;23.40;101109.00;;;;5022582;28;20701;-71
2022/07/29 13:49:08;;;;;;;8.27;3.00;;;;;23.60;101095.00;;;;5024477;28;20229;-71
2022/07/29 13:51:56;;;;;;;7.30;2.77;;;;;23.50;101095.00;;;;5013114;28;20253;-68
2022/07/29 13:54:43;;;;;;;5.20;3.03;;;;;23.60;101091.00;;;;5025803;28;20317;-70
2022/07/29 13:57:29;;;;;;;8.43;3.03;;;;;23.50;101090.00;;;;5022113;28;20809;-69
2022/07/29 14:00:16;;;;;;;4.07;2.73;;;;;23.40;101096.00;;;;5024796;28;20229;-71
2022/07/29 14:03:03;;;;;;;3.20;2.70;;;;;23.30;101087.00;;;;5019456;28;20229;-70
2022/07/29 14:05:49;;;;;;;6.43;2.60;;;;;23.20;101083.00;;;;5025042;28;20287;-70